Station History

Weather Underground - logo

Station Historical Data
Daily Summary for February 1, 2018 Units:  English    Metric   Both
« Previous Day
Next Day »
Daily Weekly Monthly Yearly Custom
  High: Low: Average:
Temperature: 68.5 °F 40.6 °F 53.3 °F
Dew Point: 53.0 °F 39.2 °F 46.9 °F
Humidity: 96 % 54 % 81 %
Wind Speed: 3.5 mph 0.0 mph 0.3 mph
Wind Gust: 3.5 mph - -
Wind:- - WSW
Pressure: 30.17 in 30.07 in -
Precipitation: 0.00 in    
Historical Graphs
 
 
Tabular Data for February 1, 2018
Time Temperature Dew Point Pressure Wind Wind Speed Wind Gust Humidity Rainfall Rate (Hourly)
00:00 45.3 °F 43.1 °F 30.10 in Calm     92 % 0.00 in
00:05 45.2 °F 43.0 °F 30.10 in Calm     92 % 0.00 in
00:10 45.2 °F 43.0 °F 30.10 in Calm     92 % 0.00 in
00:15 45.3 °F 43.1 °F 30.10 in Calm     92 % 0.00 in
00:20 45.4 °F 43.2 °F 30.09 in Calm     92 % 0.00 in
00:25 45.2 °F 43.0 °F 30.10 in Calm     92 % 0.00 in
00:30 45.0 °F 42.8 °F 30.10 in Calm     92 % 0.00 in
00:35 44.8 °F 42.6 °F 30.10 in Calm     92 % 0.00 in
00:41 44.7 °F 42.5 °F 30.09 in Calm     92 % 0.00 in
00:46 44.5 °F 42.3 °F 30.09 in Calm     92 % 0.00 in
00:51 44.4 °F 42.2 °F 30.09 in Calm     92 % 0.00 in
00:53 44.3 °F 42.1 °F 30.09 in Calm     92 % 0.00 in
00:58 44.2 °F 42.0 °F 30.09 in Calm     92 % 0.00 in
01:03 44.1 °F 41.9 °F 30.09 in Calm     92 % 0.00 in
01:08 44.0 °F 41.8 °F 30.09 in Calm     92 % 0.00 in
01:13 43.9 °F 41.7 °F 30.09 in Calm     92 % 0.00 in
01:18 43.8 °F 41.6 °F 30.09 in Calm     92 % 0.00 in
01:24 43.9 °F 42.0 °F 30.09 in Calm     93 % 0.00 in
01:29 43.8 °F 41.9 °F 30.09 in Calm     93 % 0.00 in
01:34 43.6 °F 41.7 °F 30.10 in Calm     93 % 0.00 in
01:39 43.7 °F 41.8 °F 30.10 in Calm     93 % 0.00 in
01:44 43.9 °F 42.3 °F 30.10 in Calm     94 % 0.00 in
01:49 43.9 °F 42.3 °F 30.10 in Calm     94 % 0.00 in
01:54 43.8 °F 42.2 °F 30.10 in Calm     94 % 0.00 in
01:59 43.8 °F 42.2 °F 30.11 in Calm     94 % 0.00 in
02:04 43.9 °F 42.3 °F 30.10 in Calm     94 % 0.00 in
02:09 44.1 °F 42.5 °F 30.11 in Calm     94 % 0.00 in
02:14 43.9 °F 42.3 °F 30.11 in Calm     94 % 0.00 in
02:19 43.8 °F 42.2 °F 30.10 in Calm     94 % 0.00 in
02:24 43.7 °F 42.1 °F 30.11 in Calm     94 % 0.00 in
02:29 43.6 °F 42.0 °F 30.10 in Calm     94 % 0.00 in
02:34 43.5 °F 41.9 °F 30.11 in Calm     94 % 0.00 in
02:39 43.6 °F 42.0 °F 30.10 in Calm     94 % 0.00 in
02:44 43.5 °F 41.9 °F 30.11 in Calm     94 % 0.00 in
02:49 43.4 °F 41.8 °F 30.11 in Calm     94 % 0.00 in
02:54 43.5 °F 41.9 °F 30.11 in Calm     94 % 0.00 in
02:59 43.4 °F 41.8 °F 30.10 in Calm     94 % 0.00 in
03:04 43.8 °F 42.5 °F 30.10 in Calm     95 % 0.00 in
03:09 43.8 °F 42.5 °F 30.10 in Calm     95 % 0.00 in
03:14 43.8 °F 42.5 °F 30.10 in Calm     95 % 0.00 in
03:19 43.8 °F 42.5 °F 30.10 in Calm     95 % 0.00 in
03:24 43.9 °F 42.6 °F 30.10 in Calm     95 % 0.00 in
03:29 43.9 °F 42.6 °F 30.10 in Calm     95 % 0.00 in
03:34 43.9 °F 42.6 °F 30.10 in Calm     95 % 0.00 in
03:39 44.0 °F 42.7 °F 30.10 in Calm     95 % 0.00 in
03:44 44.1 °F 42.8 °F 30.09 in Calm     95 % 0.00 in
03:49 44.2 °F 42.9 °F 30.09 in Calm     95 % 0.00 in
03:54 44.2 °F 42.9 °F 30.09 in Calm     95 % 0.00 in
03:59 44.0 °F 42.7 °F 30.09 in Calm     95 % 0.00 in
04:04 43.9 °F 42.6 °F 30.09 in Calm     95 % 0.00 in
04:09 43.5 °F 41.9 °F 30.09 in Calm     94 % 0.00 in
04:14 43.2 °F 41.6 °F 30.09 in Calm     94 % 0.00 in
04:19 43.0 °F 41.4 °F 30.09 in Calm     94 % 0.00 in
04:24 42.8 °F 41.2 °F 30.09 in Calm     94 % 0.00 in
04:30 42.7 °F 41.1 °F 30.09 in Calm     94 % 0.00 in
04:35 42.6 °F 41.0 °F 30.09 in Calm     94 % 0.00 in
04:40 42.4 °F 40.8 °F 30.09 in Calm     94 % 0.00 in
04:45 42.3 °F 40.7 °F 30.09 in Calm     94 % 0.00 in
04:50 42.3 °F 40.7 °F 30.09 in Calm     94 % 0.00 in
04:55 42.2 °F 40.6 °F 30.09 in Calm     94 % 0.00 in
05:00 42.0 °F 40.4 °F 30.09 in Calm     94 % 0.00 in
05:05 41.9 °F 40.3 °F 30.10 in Calm     94 % 0.00 in
05:10 41.9 °F 40.3 °F 30.10 in Calm     94 % 0.00 in
05:15 41.9 °F 40.3 °F 30.09 in Calm     94 % 0.00 in
05:20 41.8 °F 40.2 °F 30.10 in Calm     94 % 0.00 in
05:25 41.7 °F 40.1 °F 30.09 in Calm     94 % 0.00 in
05:30 41.9 °F 40.6 °F 30.09 in Calm     95 % 0.00 in
05:35 42.2 °F 40.9 °F 30.10 in Calm     95 % 0.00 in
05:40 41.9 °F 40.3 °F 30.10 in Calm     94 % 0.00 in
05:45 41.5 °F 39.9 °F 30.10 in Calm     94 % 0.00 in
05:50 41.4 °F 39.8 °F 30.10 in Calm     94 % 0.00 in
05:55 41.3 °F 39.7 °F 30.10 in Calm     94 % 0.00 in
06:00 41.2 °F 39.6 °F 30.10 in Calm     94 % 0.00 in
06:05 41.0 °F 39.4 °F 30.10 in Calm     94 % 0.00 in
06:10 40.9 °F 39.3 °F 30.11 in Calm     94 % 0.00 in
06:15 41.0 °F 39.4 °F 30.10 in Calm     94 % 0.00 in
06:20 40.9 °F 39.3 °F 30.11 in Calm     94 % 0.00 in
06:25 40.8 °F 39.2 °F 30.11 in Calm     94 % 0.00 in
06:30 41.1 °F 39.8 °F 30.11 in Calm     95 % 0.00 in
06:35 41.0 °F 39.7 °F 30.11 in Calm     95 % 0.00 in
06:40 40.9 °F 39.6 °F 30.11 in Calm     95 % 0.00 in
06:45 40.9 °F 39.6 °F 30.11 in Calm     95 % 0.00 in
06:50 40.7 °F 39.4 °F 30.11 in Calm     95 % 0.00 in
06:55 40.6 °F 39.3 °F 30.11 in Calm     95 % 0.00 in
07:00 40.7 °F 39.4 °F 30.11 in Calm     95 % 0.00 in
07:05 40.8 °F 39.5 °F 30.11 in Calm     95 % 0.00 in
07:10 40.9 °F 39.6 °F 30.12 in Calm     95 % 0.00 in
07:15 41.0 °F 39.7 °F 30.12 in Calm     95 % 0.00 in
07:20 41.4 °F 40.1 °F 30.12 in Calm     95 % 0.00 in
07:25 41.7 °F 40.6 °F 30.12 in Calm     96 % 0.00 in
07:30 41.8 °F 40.7 °F 30.12 in Calm     96 % 0.00 in
07:35 42.2 °F 41.1 °F 30.12 in Calm     96 % 0.00 in
07:40 42.4 °F 41.3 °F 30.12 in Calm     96 % 0.00 in
07:45 42.8 °F 41.7 °F 30.12 in Calm     96 % 0.00 in
07:50 43.2 °F 42.1 °F 30.12 in Calm     96 % 0.00 in
07:55 43.5 °F 42.4 °F 30.12 in Calm     96 % 0.00 in
08:00 43.8 °F 42.7 °F 30.13 in Calm     96 % 0.00 in
08:05 44.3 °F 43.2 °F 30.13 in Calm     96 % 0.00 in
08:10 45.1 °F 44.0 °F 30.13 in Calm     96 % 0.00 in
08:15 45.5 °F 44.4 °F 30.14 in Calm     96 % 0.00 in
08:20 46.1 °F 45.0 °F 30.14 in Calm     96 % 0.00 in
08:25 46.8 °F 45.7 °F 30.14 in Calm     96 % 0.00 in
08:30 47.5 °F 46.4 °F 30.14 in Calm     96 % 0.00 in
08:35 48.2 °F 47.1 °F 30.15 in Calm     96 % 0.00 in
08:40 48.8 °F 47.7 °F 30.15 in Calm     96 % 0.00 in
08:45 49.6 °F 48.5 °F 30.15 in Calm     96 % 0.00 in
08:50 50.2 °F 48.8 °F 30.15 in Calm     95 % 0.00 in
08:55 51.0 °F 49.0 °F 30.16 in Calm     93 % 0.00 in
09:00 51.7 °F 49.2 °F 30.16 in Calm     91 % 0.00 in
09:06 52.7 °F 49.8 °F 30.16 in SSE 1.2 mph   90 % 0.00 in
09:11 53.6 °F 49.8 °F 30.16 in SSE 2.3 mph 2.3 mph 87 % 0.00 in
09:16 54.0 °F 49.9 °F 30.16 in Calm     86 % 0.00 in
09:21 54.5 °F 50.1 °F 30.16 in Calm     85 % 0.00 in
09:26 55.1 °F 50.0 °F 30.16 in Calm     83 % 0.00 in
09:31 55.1 °F 49.4 °F 30.17 in NW 2.3 mph 2.3 mph 81 % 0.00 in
09:36 55.3 °F 49.9 °F 30.16 in Calm     82 % 0.00 in
09:41 55.7 °F 50.0 °F 30.17 in Calm     81 % 0.00 in
09:46 56.1 °F 49.7 °F 30.16 in Calm   0.1 mph 79 % 0.00 in
09:51 55.9 °F 49.1 °F 30.16 in NW 1.2 mph   78 % 0.00 in
09:56 56.0 °F 49.2 °F 30.16 in Calm     78 % 0.00 in
10:01 56.7 °F 50.3 °F 30.16 in West 1.2 mph 1.2 mph 79 % 0.00 in
10:06 57.4 °F 50.2 °F 30.16 in Calm     77 % 0.00 in
10:11 58.0 °F 49.8 °F 30.16 in Calm     74 % 0.00 in
10:16 58.4 °F 50.9 °F 30.16 in South 1.2 mph   76 % 0.00 in
10:21 59.1 °F 50.8 °F 30.16 in SE 1.2 mph 1.2 mph 74 % 0.00 in
10:26 59.9 °F 51.2 °F 30.16 in Calm     73 % 0.00 in
10:31 60.6 °F 51.1 °F 30.15 in Calm     71 % 0.00 in
10:36 61.2 °F 51.7 °F 30.15 in Calm     71 % 0.00 in
10:41 61.3 °F 50.6 °F 30.15 in Calm     68 % 0.00 in
10:46 61.1 °F 51.2 °F 30.15 in Calm     70 % 0.00 in
10:51 61.9 °F 51.6 °F 30.15 in SW 1.0 mph   69 % 0.00 in
10:56 62.4 °F 51.3 °F 30.15 in Calm   0.1 mph 67 % 0.00 in
11:01 62.3 °F 50.8 °F 30.14 in Calm     66 % 0.00 in
11:06 62.6 °F 52.3 °F 30.14 in Calm     69 % 0.00 in
11:11 63.5 °F 51.9 °F 30.14 in SSW 3.5 mph 3.5 mph 66 % 0.00 in
11:16 64.0 °F 51.6 °F 30.14 in ENE 2.3 mph 2.3 mph 64 % 0.00 in
11:21 64.2 °F 51.8 °F 30.13 in Calm     64 % 0.00 in
11:26 64.4 °F 52.0 °F 30.13 in SE 1.2 mph   64 % 0.00 in
11:31 64.4 °F 52.4 °F 30.13 in WNW 1.2 mph 1.2 mph 65 % 0.00 in
11:36 64.5 °F 51.6 °F 30.13 in NW 2.0 mph 2.0 mph 63 % 0.00 in
11:41 64.4 °F 52.0 °F 30.13 in NNW 1.2 mph 1.2 mph 64 % 0.00 in
11:46 64.9 °F 52.8 °F 30.12 in NW 1.2 mph 1.2 mph 65 % 0.00 in
11:51 64.8 °F 52.3 °F 30.12 in West 1.2 mph 1.2 mph 64 % 0.00 in
11:56 64.9 °F 52.4 °F 30.12 in ESE 1.2 mph 1.2 mph 64 % 0.00 in
12:01 65.2 °F 52.3 °F 30.12 in Calm     63 % 0.00 in
12:06 65.5 °F 52.6 °F 30.11 in East 2.3 mph 2.3 mph 63 % 0.00 in
12:11 65.6 °F 52.7 °F 30.11 in ESE 1.2 mph   63 % 0.00 in
12:16 66.0 °F 52.2 °F 30.11 in NW 1.2 mph   61 % 0.00 in
12:21 65.5 °F 52.1 °F 30.11 in NW 1.2 mph 1.2 mph 62 % 0.00 in
12:26 65.7 °F 52.3 °F 30.10 in Calm     62 % 0.00 in
12:31 66.2 °F 52.3 °F 30.10 in ESE 1.2 mph 1.2 mph 61 % 0.00 in
12:36 66.1 °F 51.8 °F 30.10 in Calm     60 % 0.00 in
12:41 66.0 °F 51.7 °F 30.10 in Calm     60 % 0.00 in
12:46 65.9 °F 52.9 °F 30.09 in SE 1.2 mph 1.2 mph 63 % 0.00 in
12:51 66.4 °F 52.1 °F 30.10 in NW 2.3 mph 2.3 mph 60 % 0.00 in
12:56 66.9 °F 53.0 °F 30.09 in Calm     61 % 0.00 in
13:01 67.2 °F 51.4 °F 30.09 in WNW 2.3 mph 2.3 mph 57 % 0.00 in
13:06 67.1 °F 51.4 °F 30.09 in Calm     57 % 0.00 in
13:11 67.2 °F 52.4 °F 30.09 in NNW 2.3 mph 2.3 mph 59 % 0.00 in
13:16 67.3 °F 52.0 °F 30.09 in WNW 1.2 mph 1.2 mph 58 % 0.00 in
13:21 67.5 °F 51.7 °F 30.09 in NW 1.2 mph 1.2 mph 57 % 0.00 in
13:26 67.7 °F 51.4 °F 30.09 in West 2.3 mph 2.3 mph 56 % 0.00 in
13:31 67.8 °F 50.5 °F 30.09 in NNE 1.2 mph   54 % 0.00 in
13:36 67.9 °F 51.1 °F 30.09 in WNW 1.2 mph   55 % 0.00 in
13:41 68.1 °F 51.3 °F 30.08 in NW 1.2 mph 1.2 mph 55 % 0.00 in
13:46 68.0 °F 51.2 °F 30.08 in SW 1.2 mph 1.2 mph 55 % 0.00 in
13:51 67.9 °F 51.1 °F 30.08 in Calm     55 % 0.00 in
13:56 68.1 °F 51.8 °F 30.08 in NW 1.2 mph 1.2 mph 56 % 0.00 in
14:01 68.1 °F 51.3 °F 30.08 in NW 2.3 mph 2.3 mph 55 % 0.00 in
14:06 68.0 °F 50.7 °F 30.08 in Calm     54 % 0.00 in
14:11 68.1 °F 51.3 °F 30.08 in West 1.2 mph 1.2 mph 55 % 0.00 in
14:16 68.2 °F 50.9 °F 30.08 in West 2.3 mph 2.3 mph 54 % 0.00 in
14:21 68.3 °F 51.0 °F 30.08 in SE 1.2 mph 1.2 mph 54 % 0.00 in
14:46 68.5 °F 51.7 °F 30.08 in WNW 2.3 mph 2.3 mph 55 % 0.00 in
14:51 68.3 °F 51.5 °F 30.08 in NNW 1.2 mph 1.2 mph 55 % 0.00 in
14:56 68.3 °F 52.5 °F 30.08 in North 2.3 mph 2.3 mph 57 % 0.00 in
15:01 68.1 °F 52.3 °F 30.08 in NW 2.3 mph 2.3 mph 57 % 0.00 in
15:06 68.1 °F 52.3 °F 30.08 in WNW 1.0 mph   57 % 0.00 in
15:11 68.1 °F 52.3 °F 30.08 in Calm     57 % 0.00 in
15:16 68.1 °F 52.3 °F 30.08 in NW 1.2 mph   57 % 0.00 in
15:21 67.9 °F 51.6 °F 30.08 in Calm     56 % 0.00 in
15:26 67.8 °F 52.0 °F 30.08 in West 1.2 mph   57 % 0.00 in
15:31 67.7 °F 52.4 °F 30.08 in NW 1.2 mph 1.2 mph 58 % 0.00 in
15:36 67.6 °F 51.8 °F 30.07 in WNW 1.2 mph   57 % 0.00 in
15:41 67.5 °F 51.7 °F 30.08 in Calm     57 % 0.00 in
15:46 67.5 °F 52.7 °F 30.08 in Calm     59 % 0.00 in
15:51 67.4 °F 52.1 °F 30.08 in WNW 1.0 mph 1.0 mph 58 % 0.00 in
15:56 67.2 °F 51.9 °F 30.08 in Calm     58 % 0.00 in
16:01 67.1 °F 52.3 °F 30.08 in Calm     59 % 0.00 in
16:06 67.1 °F 51.8 °F 30.08 in NW 1.2 mph   58 % 0.00 in
16:11 67.0 °F 52.2 °F 30.08 in NNW 1.2 mph   59 % 0.00 in
16:16 66.9 °F 51.6 °F 30.08 in Calm     58 % 0.00 in
16:21 66.8 °F 52.0 °F 30.08 in Calm     59 % 0.00 in
16:26 66.7 °F 52.4 °F 30.08 in Calm     60 % 0.00 in
16:31 66.5 °F 52.2 °F 30.08 in Calm     60 % 0.00 in
16:36 66.2 °F 52.3 °F 30.08 in Calm     61 % 0.00 in
16:41 66.1 °F 51.8 °F 30.08 in Calm     60 % 0.00 in
16:46 65.7 °F 51.9 °F 30.08 in Calm     61 % 0.00 in
16:51 65.2 °F 51.4 °F 30.08 in Calm     61 % 0.00 in
16:56 64.7 °F 51.4 °F 30.08 in Calm     62 % 0.00 in
17:01 64.4 °F 51.1 °F 30.09 in Calm     62 % 0.00 in
17:06 64.1 °F 51.2 °F 30.09 in Calm     63 % 0.00 in
17:11 63.7 °F 50.9 °F 30.09 in Calm     63 % 0.00 in
17:16 63.5 °F 50.7 °F 30.09 in Calm     63 % 0.00 in
17:21 63.1 °F 50.7 °F 30.09 in Calm     64 % 0.00 in
17:26 62.6 °F 50.7 °F 30.09 in Calm     65 % 0.00 in
17:31 62.1 °F 50.6 °F 30.09 in Calm     66 % 0.00 in
17:36 61.9 °F 50.4 °F 30.09 in Calm     66 % 0.00 in
17:41 61.7 °F 50.2 °F 30.10 in Calm     66 % 0.00 in
17:46 61.5 °F 50.4 °F 30.10 in Calm     67 % 0.00 in
17:51 61.3 °F 50.2 °F 30.10 in Calm     67 % 0.00 in
17:56 61.0 °F 50.0 °F 30.10 in Calm     67 % 0.00 in
18:01 60.5 °F 50.3 °F 30.10 in Calm     69 % 0.00 in
18:06 59.8 °F 50.4 °F 30.11 in Calm     71 % 0.00 in
18:11 59.4 °F 50.0 °F 30.11 in Calm     71 % 0.00 in
18:17 59.0 °F 50.0 °F 30.11 in Calm     72 % 0.00 in
18:22 58.4 °F 49.8 °F 30.11 in Calm     73 % 0.00 in
18:27 57.9 °F 49.7 °F 30.11 in Calm     74 % 0.00 in
18:32 57.5 °F 49.6 °F 30.11 in Calm     75 % 0.00 in
18:37 57.1 °F 49.6 °F 30.11 in Calm     76 % 0.00 in
18:42 56.6 °F 49.1 °F 30.11 in Calm     76 % 0.00 in
18:47 56.1 °F 49.0 °F 30.11 in Calm     77 % 0.00 in
18:52 55.7 °F 48.9 °F 30.12 in Calm     78 % 0.00 in
18:57 55.7 °F 49.3 °F 30.12 in Calm     79 % 0.00 in
19:02 55.0 °F 48.9 °F 30.12 in Calm     80 % 0.00 in
19:07 54.3 °F 48.6 °F 30.12 in Calm     81 % 0.00 in
19:12 54.0 °F 49.0 °F 30.12 in Calm     83 % 0.00 in
19:17 54.3 °F 49.2 °F 30.12 in Calm     83 % 0.00 in
19:22 54.7 °F 49.3 °F 30.12 in Calm     82 % 0.00 in
19:27 54.8 °F 49.1 °F 30.12 in Calm     81 % 0.00 in
19:32 54.9 °F 49.2 °F 30.12 in Calm     81 % 0.00 in
19:37 54.8 °F 49.1 °F 30.13 in Calm     81 % 0.00 in
19:42 54.6 °F 48.9 °F 30.13 in Calm     81 % 0.00 in
19:47 54.3 °F 48.9 °F 30.13 in Calm     82 % 0.00 in
19:52 53.9 °F 48.5 °F 30.13 in Calm     82 % 0.00 in
19:57 53.7 °F 48.7 °F 30.13 in Calm     83 % 0.00 in
20:02 53.7 °F 49.0 °F 30.14 in Calm     84 % 0.00 in
20:07 53.7 °F 49.0 °F 30.14 in Calm     84 % 0.00 in
20:12 53.7 °F 49.0 °F 30.14 in Calm     84 % 0.00 in
20:17 53.8 °F 49.4 °F 30.14 in Calm     85 % 0.00 in
20:22 53.8 °F 49.4 °F 30.14 in Calm     85 % 0.00 in
20:27 53.8 °F 49.4 °F 30.14 in Calm     85 % 0.00 in
20:32 53.8 °F 49.4 °F 30.15 in Calm     85 % 0.00 in
20:37 53.7 °F 49.0 °F 30.15 in Calm     84 % 0.00 in
20:42 53.5 °F 49.1 °F 30.15 in Calm     85 % 0.00 in
20:47 53.2 °F 48.8 °F 30.15 in Calm     85 % 0.00 in
20:52 52.9 °F 48.5 °F 30.15 in Calm     85 % 0.00 in
20:57 52.7 °F 48.6 °F 30.15 in Calm     86 % 0.00 in
21:02 52.4 °F 48.3 °F 30.16 in Calm     86 % 0.00 in
21:07 52.0 °F 47.9 °F 30.16 in Calm     86 % 0.00 in
21:12 51.7 °F 48.0 °F 30.16 in Calm     87 % 0.00 in
21:17 51.4 °F 47.7 °F 30.16 in Calm     87 % 0.00 in
21:22 51.3 °F 47.9 °F 30.16 in Calm     88 % 0.00 in
21:27 51.2 °F 47.8 °F 30.16 in Calm     88 % 0.00 in
21:32 51.2 °F 47.8 °F 30.16 in Calm     88 % 0.00 in
21:37 51.2 °F 48.1 °F 30.16 in Calm     89 % 0.00 in
21:42 51.3 °F 48.2 °F 30.16 in Calm     89 % 0.00 in
21:47 51.5 °F 48.4 °F 30.16 in Calm     89 % 0.00 in
21:52 51.5 °F 48.1 °F 30.17 in Calm     88 % 0.00 in
21:57 51.6 °F 48.2 °F 30.17 in Calm     88 % 0.00 in
22:02 51.7 °F 48.0 °F 30.17 in Calm     87 % 0.00 in
22:07 51.5 °F 47.8 °F 30.17 in Calm     87 % 0.00 in
22:12 51.3 °F 47.6 °F 30.17 in Calm     87 % 0.00 in
22:17 51.0 °F 47.3 °F 30.17 in Calm     87 % 0.00 in
22:22 50.8 °F 47.4 °F 30.17 in Calm     88 % 0.00 in
22:32 50.4 °F 47.0 °F 30.16 in Calm     88 % 0.00 in
22:37 50.2 °F 46.8 °F 30.17 in Calm     88 % 0.00 in
22:42 50.0 °F 46.6 °F 30.16 in Calm     88 % 0.00 in
22:47 49.9 °F 46.8 °F 30.16 in Calm     89 % 0.00 in
22:52 49.9 °F 46.8 °F 30.16 in Calm     89 % 0.00 in
22:58 49.7 °F 46.3 °F 30.17 in Calm     88 % 0.00 in
23:03 49.5 °F 46.4 °F 30.17 in Calm     89 % 0.00 in
23:07 49.2 °F 46.1 °F 30.17 in Calm     89 % 0.00 in
23:12 48.8 °F 45.4 °F 30.16 in Calm     88 % 0.00 in
23:17 48.5 °F 45.4 °F 30.16 in Calm     89 % 0.00 in
23:22 48.4 °F 45.6 °F 30.17 in Calm     90 % 0.00 in
23:27 48.2 °F 45.4 °F 30.17 in Calm     90 % 0.00 in
23:33 47.9 °F 44.8 °F 30.17 in Calm     89 % 0.00 in
23:38 47.6 °F 44.8 °F 30.17 in Calm     90 % 0.00 in
23:43 47.5 °F 44.7 °F 30.17 in Calm     90 % 0.00 in
23:48 47.3 °F 44.5 °F 30.17 in Calm     90 % 0.00 in
23:53 47.0 °F 44.2 °F 30.17 in Calm     90 % 0.00 in
23:58 46.6 °F 43.8 °F 30.17 in Calm     90 % 0.00 in
Park Place, Exeter, Tulare County, California, USA
Compliments of Weather Underground - 2.75 mb